sensor_id;sensor_type;location;lat;lon;timestamp;temperature;humidity
913;DHT22;443;51.448;7.028;2023-07-31T00:02:20;18.70;90.20
913;DHT22;443;51.448;7.028;2023-07-31T00:04:46;18.70;90.10
913;DHT22;443;51.448;7.028;2023-07-31T00:07:15;18.70;90.10
913;DHT22;443;51.448;7.028;2023-07-31T00:09:42;18.70;90.10
913;DHT22;443;51.448;7.028;2023-07-31T00:12:09;18.70;90.20
913;DHT22;443;51.448;7.028;2023-07-31T00:14:36;18.60;90.20
913;DHT22;443;51.448;7.028;2023-07-31T00:17:03;18.60;90.20
913;DHT22;443;51.448;7.028;2023-07-31T00:19:29;18.70;90.30
913;DHT22;443;51.448;7.028;2023-07-31T00:21:56;18.60;90.20
913;DHT22;443;51.448;7.028;2023-07-31T00:24:24;18.60;90.10
913;DHT22;443;51.448;7.028;2023-07-31T00:26:51;18.60;90.30
913;DHT22;443;51.448;7.028;2023-07-31T00:29:18;18.60;90.40
913;DHT22;443;51.448;7.028;2023-07-31T00:31:45;18.60;90.20
913;DHT22;443;51.448;7.028;2023-07-31T00:34:13;18.60;90.30
913;DHT22;443;51.448;7.028;2023-07-31T00:36:39;18.70;90.30
913;DHT22;443;51.448;7.028;2023-07-31T00:39:06;18.70;90.30
913;DHT22;443;51.448;7.028;2023-07-31T00:41:34;18.70;90.10
913;DHT22;443;51.448;7.028;2023-07-31T00:44:01;18.70;90.10
913;DHT22;443;51.448;7.028;2023-07-31T00:46:28;18.70;90.10
913;DHT22;443;51.448;7.028;2023-07-31T00:48:54;18.70;90.30
913;DHT22;443;51.448;7.028;2023-07-31T00:51:21;18.70;90.10
913;DHT22;443;51.448;7.028;2023-07-31T00:53:48;18.70;90.20
913;DHT22;443;51.448;7.028;2023-07-31T00:56:15;18.70;90.00
913;DHT22;443;51.448;7.028;2023-07-31T00:58:43;18.60;90.00
913;DHT22;443;51.448;7.028;2023-07-31T01:01:10;18.70;90.00
913;DHT22;443;51.448;7.028;2023-07-31T01:03:37;18.70;90.10
913;DHT22;443;51.448;7.028;2023-07-31T01:06:14;18.60;90.00
913;DHT22;443;51.448;7.028;2023-07-31T01:08:47;18.60;90.00
913;DHT22;443;51.448;7.028;2023-07-31T01:11:19;18.70;90.00
913;DHT22;443;51.448;7.028;2023-07-31T01:13:49;18.70;89.90
913;DHT22;443;51.448;7.028;2023-07-31T01:16:16;18.70;89.90
913;DHT22;443;51.448;7.028;2023-07-31T01:18:43;18.70;89.80
913;DHT22;443;51.448;7.028;2023-07-31T01:21:23;18.70;90.40
913;DHT22;443;51.448;7.028;2023-07-31T01:24:20;18.70;89.80
913;DHT22;443;51.448;7.028;2023-07-31T01:26:55;18.60;89.80
913;DHT22;443;51.448;7.028;2023-07-31T01:29:29;18.60;89.70
913;DHT22;443;51.448;7.028;2023-07-31T01:32:01;18.60;89.50
913;DHT22;443;51.448;7.028;2023-07-31T01:34:29;18.60;89.80
913;DHT22;443;51.448;7.028;2023-07-31T01:36:56;18.60;89.80
913;DHT22;443;51.448;7.028;2023-07-31T01:39:23;18.60;89.70
913;DHT22;443;51.448;7.028;2023-07-31T01:41:51;18.60;89.70
913;DHT22;443;51.448;7.028;2023-07-31T01:44:18;18.60;89.60
913;DHT22;443;51.448;7.028;2023-07-31T01:46:45;18.70;89.50
913;DHT22;443;51.448;7.028;2023-07-31T01:49:12;18.70;89.40
913;DHT22;443;51.448;7.028;2023-07-31T01:51:39;18.70;89.50
913;DHT22;443;51.448;7.028;2023-07-31T01:54:06;18.70;89.30
913;DHT22;443;51.448;7.028;2023-07-31T01:56:32;18.70;89.40
913;DHT22;443;51.448;7.028;2023-07-31T01:59:01;18.70;89.20
913;DHT22;443;51.448;7.028;2023-07-31T02:01:27;18.70;89.20
913;DHT22;443;51.448;7.028;2023-07-31T02:03:54;18.70;89.20
913;DHT22;443;51.448;7.028;2023-07-31T02:06:21;18.70;89.00
913;DHT22;443;51.448;7.028;2023-07-31T02:08:48;18.70;89.00
913;DHT22;443;51.448;7.028;2023-07-31T02:11:14;18.60;89.00
913;DHT22;443;51.448;7.028;2023-07-31T02:13:41;18.60;88.80
913;DHT22;443;51.448;7.028;2023-07-31T02:16:09;18.70;89.00
913;DHT22;443;51.448;7.028;2023-07-31T02:18:36;18.60;88.90
913;DHT22;443;51.448;7.028;2023-07-31T02:21:03;18.60;88.80
913;DHT22;443;51.448;7.028;2023-07-31T02:23:30;18.70;89.00
913;DHT22;443;51.448;7.028;2023-07-31T02:25:56;18.60;88.60
913;DHT22;443;51.448;7.028;2023-07-31T02:28:23;18.70;88.90
913;DHT22;443;51.448;7.028;2023-07-31T02:30:50;18.70;88.80
913;DHT22;443;51.448;7.028;2023-07-31T02:33:19;18.70;88.60
913;DHT22;443;51.448;7.028;2023-07-31T02:35:45;18.70;88.50
913;DHT22;443;51.448;7.028;2023-07-31T02:38:12;18.70;88.60
913;DHT22;443;51.448;7.028;2023-07-31T02:40:39;18.60;88.50
913;DHT22;443;51.448;7.028;2023-07-31T02:43:06;18.60;88.40
913;DHT22;443;51.448;7.028;2023-07-31T02:45:33;18.70;88.60
913;DHT22;443;51.448;7.028;2023-07-31T02:48:00;18.60;88.10
913;DHT22;443;51.448;7.028;2023-07-31T02:50:28;18.70;88.30
913;DHT22;443;51.448;7.028;2023-07-31T02:52:55;18.70;88.10
913;DHT22;443;51.448;7.028;2023-07-31T02:55:22;18.70;88.20
913;DHT22;443;51.448;7.028;2023-07-31T02:57:48;18.70;88.90
913;DHT22;443;51.448;7.028;2023-07-31T03:00:16;18.70;88.10
913;DHT22;443;51.448;7.028;2023-07-31T03:02:42;18.70;88.20
913;DHT22;443;51.448;7.028;2023-07-31T03:05:09;18.70;88.10
913;DHT22;443;51.448;7.028;2023-07-31T03:07:37;18.70;88.20
913;DHT22;443;51.448;7.028;2023-07-31T03:10:05;18.70;88.10
913;DHT22;443;51.448;7.028;2023-07-31T03:12:31;18.60;88.10
913;DHT22;443;51.448;7.028;2023-07-31T03:14:58;18.70;88.30
913;DHT22;443;51.448;7.028;2023-07-31T03:17:25;18.70;88.50
913;DHT22;443;51.448;7.028;2023-07-31T03:19:52;18.70;88.30
913;DHT22;443;51.448;7.028;2023-07-31T03:22:18;18.70;88.30
913;DHT22;443;51.448;7.028;2023-07-31T03:24:46;18.70;88.10
913;DHT22;443;51.448;7.028;2023-07-31T03:27:13;18.70;88.10
913;DHT22;443;51.448;7.028;2023-07-31T03:29:40;18.70;88.20
913;DHT22;443;51.448;7.028;2023-07-31T03:32:07;18.70;88.20
913;DHT22;443;51.448;7.028;2023-07-31T03:34:33;18.70;88.30
913;DHT22;443;51.448;7.028;2023-07-31T03:37:00;18.70;88.40
913;DHT22;443;51.448;7.028;2023-07-31T03:39:27;18.70;88.30
913;DHT22;443;51.448;7.028;2023-07-31T03:41:55;18.70;88.30
913;DHT22;443;51.448;7.028;2023-07-31T03:44:21;18.70;88.30
913;DHT22;443;51.448;7.028;2023-07-31T03:46:48;18.70;88.30
913;DHT22;443;51.448;7.028;2023-07-31T03:49:15;18.70;88.30
913;DHT22;443;51.448;7.028;2023-07-31T03:51:42;18.70;88.30
913;DHT22;443;51.448;7.028;2023-07-31T03:54:08;18.70;88.30
913;DHT22;443;51.448;7.028;2023-07-31T03:56:35;18.70;88.30
913;DHT22;443;51.448;7.028;2023-07-31T03:59:05;18.70;88.20
913;DHT22;443;51.448;7.028;2023-07-31T04:01:31;18.70;88.20
913;DHT22;443;51.448;7.028;2023-07-31T04:03:58;18.70;88.10
913;DHT22;443;51.448;7.028;2023-07-31T04:06:25;18.70;88.30
913;DHT22;443;51.448;7.028;2023-07-31T04:08:51;18.70;88.30
913;DHT22;443;51.448;7.028;2023-07-31T04:11:18;18.70;88.30
913;DHT22;443;51.448;7.028;2023-07-31T04:13:45;18.70;88.10
913;DHT22;443;51.448;7.028;2023-07-31T04:16:13;18.70;88.10
913;DHT22;443;51.448;7.028;2023-07-31T04:18:39;18.70;88.20
913;DHT22;443;51.448;7.028;2023-07-31T04:21:06;18.70;88.20
913;DHT22;443;51.448;7.028;2023-07-31T04:23:33;18.70;88.20
913;DHT22;443;51.448;7.028;2023-07-31T04:26:00;18.70;88.30
913;DHT22;443;51.448;7.028;2023-07-31T04:28:26;18.70;88.50
913;DHT22;443;51.448;7.028;2023-07-31T04:30:53;18.80;88.40
913;DHT22;443;51.448;7.028;2023-07-31T04:33:21;18.80;88.20
913;DHT22;443;51.448;7.028;2023-07-31T04:35:51;18.80;88.30
913;DHT22;443;51.448;7.028;2023-07-31T04:38:19;18.80;88.20
913;DHT22;443;51.448;7.028;2023-07-31T04:40:46;18.80;88.30
913;DHT22;443;51.448;7.028;2023-07-31T04:43:13;18.80;88.50
913;DHT22;443;51.448;7.028;2023-07-31T04:45:42;18.80;88.50
913;DHT22;443;51.448;7.028;2023-07-31T04:48:09;18.80;88.50
913;DHT22;443;51.448;7.028;2023-07-31T04:50:37;18.80;88.40
913;DHT22;443;51.448;7.028;2023-07-31T04:53:03;18.80;88.50
913;DHT22;443;51.448;7.028;2023-07-31T04:55:30;18.80;88.40
913;DHT22;443;51.448;7.028;2023-07-31T04:57:58;18.80;88.50
913;DHT22;443;51.448;7.028;2023-07-31T05:00:25;18.80;88.30
913;DHT22;443;51.448;7.028;2023-07-31T05:02:52;18.80;88.40
913;DHT22;443;51.448;7.028;2023-07-31T05:05:18;18.90;88.50
913;DHT22;443;51.448;7.028;2023-07-31T05:07:46;18.80;89.10
913;DHT22;443;51.448;7.028;2023-07-31T05:10:13;18.80;88.30
913;DHT22;443;51.448;7.028;2023-07-31T05:12:40;18.80;88.50
913;DHT22;443;51.448;7.028;2023-07-31T05:15:07;18.80;88.50
913;DHT22;443;51.448;7.028;2023-07-31T05:17:34;18.80;88.50
913;DHT22;443;51.448;7.028;2023-07-31T05:20:01;18.80;89.10
913;DHT22;443;51.448;7.028;2023-07-31T05:22:28;18.80;88.60
913;DHT22;443;51.448;7.028;2023-07-31T05:24:56;18.80;88.60
913;DHT22;443;51.448;7.028;2023-07-31T05:27:22;18.90;88.60
913;DHT22;443;51.448;7.028;2023-07-31T05:29:49;18.90;88.60
913;DHT22;443;51.448;7.028;2023-07-31T05:32:16;18.90;88.70
913;DHT22;443;51.448;7.028;2023-07-31T05:34:43;18.90;88.60
913;DHT22;443;51.448;7.028;2023-07-31T05:37:10;18.90;88.50
913;DHT22;443;51.448;7.028;2023-07-31T05:39:37;18.90;88.60
913;DHT22;443;51.448;7.028;2023-07-31T05:42:05;18.90;88.50
913;DHT22;443;51.448;7.028;2023-07-31T05:44:32;18.90;88.40
913;DHT22;443;51.448;7.028;2023-07-31T05:46:59;18.90;88.60
913;DHT22;443;51.448;7.028;2023-07-31T05:49:25;18.90;88.60
913;DHT22;443;51.448;7.028;2023-07-31T05:51:52;18.90;88.80
913;DHT22;443;51.448;7.028;2023-07-31T05:54:19;18.90;88.80
913;DHT22;443;51.448;7.028;2023-07-31T05:56:46;18.90;88.80
913;DHT22;443;51.448;7.028;2023-07-31T05:59:14;18.90;88.60
913;DHT22;443;51.448;7.028;2023-07-31T06:01:40;18.90;88.90
913;DHT22;443;51.448;7.028;2023-07-31T06:04:07;18.90;88.80
913;DHT22;443;51.448;7.028;2023-07-31T06:06:34;18.90;88.70
913;DHT22;443;51.448;7.028;2023-07-31T06:09:01;18.90;88.40
913;DHT22;443;51.448;7.028;2023-07-31T06:11:29;18.90;88.50
913;DHT22;443;51.448;7.028;2023-07-31T06:13:55;18.90;88.60
913;DHT22;443;51.448;7.028;2023-07-31T06:16:23;18.90;88.50
913;DHT22;443;51.448;7.028;2023-07-31T06:18:50;18.90;88.70
913;DHT22;443;51.448;7.028;2023-07-31T06:21:17;18.90;88.60
913;DHT22;443;51.448;7.028;2023-07-31T06:23:44;18.90;88.50
913;DHT22;443;51.448;7.028;2023-07-31T06:26:10;18.90;88.50
913;DHT22;443;51.448;7.028;2023-07-31T06:28:37;18.90;88.50
913;DHT22;443;51.448;7.028;2023-07-31T06:31:04;18.90;88.40
913;DHT22;443;51.448;7.028;2023-07-31T06:33:32;18.90;88.50
913;DHT22;443;51.448;7.028;2023-07-31T06:35:59;19.00;88.50
913;DHT22;443;51.448;7.028;2023-07-31T06:38:26;19.00;88.60
913;DHT22;443;51.448;7.028;2023-07-31T06:40:53;19.00;88.60
913;DHT22;443;51.448;7.028;2023-07-31T06:43:20;19.00;88.60
913;DHT22;443;51.448;7.028;2023-07-31T06:45:47;18.90;88.80
913;DHT22;443;51.448;7.028;2023-07-31T06:48:16;19.00;88.60
913;DHT22;443;51.448;7.028;2023-07-31T06:50:44;19.00;88.50
913;DHT22;443;51.448;7.028;2023-07-31T06:53:11;18.90;88.80
913;DHT22;443;51.448;7.028;2023-07-31T06:55:38;18.90;88.80
913;DHT22;443;51.448;7.028;2023-07-31T06:58:05;18.90;88.80
913;DHT22;443;51.448;7.028;2023-07-31T07:00:31;18.90;89.00
913;DHT22;443;51.448;7.028;2023-07-31T07:02:58;18.90;89.00
913;DHT22;443;51.448;7.028;2023-07-31T07:05:25;18.90;89.10
913;DHT22;443;51.448;7.028;2023-07-31T07:07:53;18.90;89.20
913;DHT22;443;51.448;7.028;2023-07-31T07:10:20;18.90;89.40
913;DHT22;443;51.448;7.028;2023-07-31T07:12:47;18.90;89.50
913;DHT22;443;51.448;7.028;2023-07-31T07:15:14;18.80;89.30
913;DHT22;443;51.448;7.028;2023-07-31T07:17:40;18.80;89.60
913;DHT22;443;51.448;7.028;2023-07-31T07:20:08;18.90;89.70
913;DHT22;443;51.448;7.028;2023-07-31T07:22:35;18.90;89.80
913;DHT22;443;51.448;7.028;2023-07-31T07:25:03;18.90;89.50
913;DHT22;443;51.448;7.028;2023-07-31T07:27:30;18.90;89.80
913;DHT22;443;51.448;7.028;2023-07-31T07:29:57;18.90;89.50
913;DHT22;443;51.448;7.028;2023-07-31T07:32:23;18.80;89.70
913;DHT22;443;51.448;7.028;2023-07-31T07:34:50;18.80;89.80
913;DHT22;443;51.448;7.028;2023-07-31T07:37:17;18.90;90.00
913;DHT22;443;51.448;7.028;2023-07-31T07:39:44;18.80;90.00
913;DHT22;443;51.448;7.028;2023-07-31T07:42:12;18.80;89.70
913;DHT22;443;51.448;7.028;2023-07-31T07:44:39;18.90;90.00
913;DHT22;443;51.448;7.028;2023-07-31T07:47:06;18.90;90.00
913;DHT22;443;51.448;7.028;2023-07-31T07:49:33;18.90;90.00
913;DHT22;443;51.448;7.028;2023-07-31T07:52:00;18.80;90.00
913;DHT22;443;51.448;7.028;2023-07-31T07:54:26;18.80;90.10
913;DHT22;443;51.448;7.028;2023-07-31T07:56:53;18.80;90.10
913;DHT22;443;51.448;7.028;2023-07-31T07:59:21;18.80;90.00
913;DHT22;443;51.448;7.028;2023-07-31T08:01:48;18.80;90.00
913;DHT22;443;51.448;7.028;2023-07-31T08:04:15;18.70;90.00
913;DHT22;443;51.448;7.028;2023-07-31T08:06:41;18.70;90.20
913;DHT22;443;51.448;7.028;2023-07-31T08:09:08;18.70;90.10
913;DHT22;443;51.448;7.028;2023-07-31T08:11:35;18.70;90.30
913;DHT22;443;51.448;7.028;2023-07-31T08:14:02;18.70;90.10
913;DHT22;443;51.448;7.028;2023-07-31T08:16:30;18.70;90.30
913;DHT22;443;51.448;7.028;2023-07-31T08:18:57;18.70;90.40
913;DHT22;443;51.448;7.028;2023-07-31T08:21:23;18.70;90.10
913;DHT22;443;51.448;7.028;2023-07-31T08:23:50;18.80;90.20
913;DHT22;443;51.448;7.028;2023-07-31T08:26:17;18.70;90.00
913;DHT22;443;51.448;7.028;2023-07-31T08:28:44;18.70;90.00
913;DHT22;443;51.448;7.028;2023-07-31T08:31:11;18.70;90.00
913;DHT22;443;51.448;7.028;2023-07-31T08:33:39;18.70;90.00
913;DHT22;443;51.448;7.028;2023-07-31T08:36:06;18.70;90.10
913;DHT22;443;51.448;7.028;2023-07-31T08:38:33;18.70;90.10
913;DHT22;443;51.448;7.028;2023-07-31T08:41:00;18.70;90.20
913;DHT22;443;51.448;7.028;2023-07-31T08:43:30;18.70;90.10
913;DHT22;443;51.448;7.028;2023-07-31T08:45:56;18.70;90.10
913;DHT22;443;51.448;7.028;2023-07-31T08:48:23;18.70;90.10
913;DHT22;443;51.448;7.028;2023-07-31T08:50:52;18.80;90.00
913;DHT22;443;51.448;7.028;2023-07-31T08:53:19;18.80;90.00
913;DHT22;443;51.448;7.028;2023-07-31T08:55:47;18.80;89.80
913;DHT22;443;51.448;7.028;2023-07-31T08:58:15;18.80;89.90
913;DHT22;443;51.448;7.028;2023-07-31T09:00:42;18.80;90.00
913;DHT22;443;51.448;7.028;2023-07-31T09:03:13;18.80;90.00
913;DHT22;443;51.448;7.028;2023-07-31T09:05:42;18.80;90.00
913;DHT22;443;51.448;7.028;2023-07-31T09:08:12;18.80;90.50
913;DHT22;443;51.448;7.028;2023-07-31T09:10:41;18.80;90.20
913;DHT22;443;51.448;7.028;2023-07-31T09:13:08;18.70;90.20
913;DHT22;443;51.448;7.028;2023-07-31T09:15:35;18.70;90.30
913;DHT22;443;51.448;7.028;2023-07-31T09:18:04;18.70;90.20
913;DHT22;443;51.448;7.028;2023-07-31T09:20:31;18.80;90.30
913;DHT22;443;51.448;7.028;2023-07-31T09:23:05;18.70;90.30
913;DHT22;443;51.448;7.028;2023-07-31T09:25:35;18.70;90.20
913;DHT22;443;51.448;7.028;2023-07-31T09:28:03;18.70;90.30
913;DHT22;443;51.448;7.028;2023-07-31T09:30:30;18.80;90.50
913;DHT22;443;51.448;7.028;2023-07-31T09:33:03;18.70;90.40
913;DHT22;443;51.448;7.028;2023-07-31T09:35:32;18.80;90.50
913;DHT22;443;51.448;7.028;2023-07-31T09:38:01;18.80;90.40
913;DHT22;443;51.448;7.028;2023-07-31T09:40:30;18.80;90.20
913;DHT22;443;51.448;7.028;2023-07-31T09:43:00;18.70;90.30
913;DHT22;443;51.448;7.028;2023-07-31T09:45:27;18.70;90.20
913;DHT22;443;51.448;7.028;2023-07-31T09:47:54;18.80;90.30
913;DHT22;443;51.448;7.028;2023-07-31T09:50:22;18.80;90.40
913;DHT22;443;51.448;7.028;2023-07-31T09:52:49;18.80;90.30
913;DHT22;443;51.448;7.028;2023-07-31T09:55:16;18.80;90.10
913;DHT22;443;51.448;7.028;2023-07-31T09:57:44;18.80;90.20
913;DHT22;443;51.448;7.028;2023-07-31T10:00:15;18.90;90.20
913;DHT22;443;51.448;7.028;2023-07-31T10:02:45;18.80;90.20
913;DHT22;443;51.448;7.028;2023-07-31T10:05:13;18.80;90.30
913;DHT22;443;51.448;7.028;2023-07-31T10:07:48;18.80;90.30
913;DHT22;443;51.448;7.028;2023-07-31T10:10:16;18.80;90.30
913;DHT22;443;51.448;7.028;2023-07-31T10:12:44;18.80;90.40
913;DHT22;443;51.448;7.028;2023-07-31T10:15:15;18.80;90.20
913;DHT22;443;51.448;7.028;2023-07-31T10:17:42;18.80;90.30
913;DHT22;443;51.448;7.028;2023-07-31T10:20:10;18.80;90.30
913;DHT22;443;51.448;7.028;2023-07-31T10:22:37;18.80;90.40
913;DHT22;443;51.448;7.028;2023-07-31T10:25:08;18.80;90.40
913;DHT22;443;51.448;7.028;2023-07-31T10:27:35;18.80;90.40
913;DHT22;443;51.448;7.028;2023-07-31T10:30:04;18.80;90.30
913;DHT22;443;51.448;7.028;2023-07-31T10:32:33;18.80;90.60
913;DHT22;443;51.448;7.028;2023-07-31T10:35:01;18.80;90.50
913;DHT22;443;51.448;7.028;2023-07-31T10:37:35;18.80;90.50
913;DHT22;443;51.448;7.028;2023-07-31T10:40:03;18.80;90.30
913;DHT22;443;51.448;7.028;2023-07-31T10:42:32;18.80;90.50
913;DHT22;443;51.448;7.028;2023-07-31T10:45:00;18.80;90.50
913;DHT22;443;51.448;7.028;2023-07-31T10:47:27;18.80;90.60
913;DHT22;443;51.448;7.028;2023-07-31T10:50:15;18.80;90.60
913;DHT22;443;51.448;7.028;2023-07-31T10:52:44;18.70;90.40
913;DHT22;443;51.448;7.028;2023-07-31T10:55:23;18.70;90.80
913;DHT22;443;51.448;7.028;2023-07-31T10:57:50;18.80;90.40
913;DHT22;443;51.448;7.028;2023-07-31T11:00:18;18.80;90.60
913;DHT22;443;51.448;7.028;2023-07-31T11:02:56;18.80;90.30
913;DHT22;443;51.448;7.028;2023-07-31T11:05:44;18.80;90.40
913;DHT22;443;51.448;7.028;2023-07-31T11:08:16;18.80;90.60
913;DHT22;443;51.448;7.028;2023-07-31T11:10:44;18.80;90.40
913;DHT22;443;51.448;7.028;2023-07-31T11:13:11;18.80;90.60
913;DHT22;443;51.448;7.028;2023-07-31T11:15:38;18.80;90.70
913;DHT22;443;51.448;7.028;2023-07-31T11:18:05;18.80;90.50
913;DHT22;443;51.448;7.028;2023-07-31T11:20:35;18.80;90.40
913;DHT22;443;51.448;7.028;2023-07-31T11:23:03;18.90;90.50
913;DHT22;443;51.448;7.028;2023-07-31T11:25:31;18.80;90.40
913;DHT22;443;51.448;7.028;2023-07-31T11:28:01;18.90;90.50
913;DHT22;443;51.448;7.028;2023-07-31T11:30:28;18.90;90.50
913;DHT22;443;51.448;7.028;2023-07-31T11:32:55;18.90;90.40
913;DHT22;443;51.448;7.028;2023-07-31T11:35:22;18.90;90.40
913;DHT22;443;51.448;7.028;2023-07-31T11:37:50;18.90;90.40
913;DHT22;443;51.448;7.028;2023-07-31T11:40:17;18.80;90.40
913;DHT22;443;51.448;7.028;2023-07-31T11:42:44;18.90;90.60
913;DHT22;443;51.448;7.028;2023-07-31T11:45:11;18.90;90.60
913;DHT22;443;51.448;7.028;2023-07-31T11:47:38;18.90;90.50
913;DHT22;443;51.448;7.028;2023-07-31T11:50:07;18.90;90.50
913;DHT22;443;51.448;7.028;2023-07-31T11:52:39;18.90;90.50
913;DHT22;443;51.448;7.028;2023-07-31T11:55:08;18.90;90.20
913;DHT22;443;51.448;7.028;2023-07-31T11:57:37;19.00;90.40
913;DHT22;443;51.448;7.028;2023-07-31T12:00:06;19.00;90.40
913;DHT22;443;51.448;7.028;2023-07-31T12:02:35;19.00;89.80
913;DHT22;443;51.448;7.028;2023-07-31T12:05:02;19.00;90.20
913;DHT22;443;51.448;7.028;2023-07-31T12:07:43;19.00;90.30
913;DHT22;443;51.448;7.028;2023-07-31T12:10:11;19.00;90.20
913;DHT22;443;51.448;7.028;2023-07-31T12:12:56;19.00;90.10
913;DHT22;443;51.448;7.028;2023-07-31T12:15:35;19.00;89.60
913;DHT22;443;51.448;7.028;2023-07-31T12:18:08;19.00;90.10
913;DHT22;443;51.448;7.028;2023-07-31T12:20:35;19.00;90.10
913;DHT22;443;51.448;7.028;2023-07-31T12:23:02;19.00;90.10
913;DHT22;443;51.448;7.028;2023-07-31T12:25:33;19.00;89.70
913;DHT22;443;51.448;7.028;2023-07-31T12:28:05;19.00;90.10
913;DHT22;443;51.448;7.028;2023-07-31T12:30:37;19.00;90.10
913;DHT22;443;51.448;7.028;2023-07-31T12:33:04;19.00;90.40
913;DHT22;443;51.448;7.028;2023-07-31T12:35:36;19.00;90.30
913;DHT22;443;51.448;7.028;2023-07-31T12:38:03;19.00;89.80
913;DHT22;443;51.448;7.028;2023-07-31T12:40:30;19.00;89.50
913;DHT22;443;51.448;7.028;2023-07-31T12:42:58;19.00;89.70
913;DHT22;443;51.448;7.028;2023-07-31T12:45:27;19.00;90.30
913;DHT22;443;51.448;7.028;2023-07-31T12:47:54;19.00;89.60
913;DHT22;443;51.448;7.028;2023-07-31T12:50:20;19.00;90.00
913;DHT22;443;51.448;7.028;2023-07-31T12:52:48;19.00;89.60
913;DHT22;443;51.448;7.028;2023-07-31T12:55:14;19.00;90.10
913;DHT22;443;51.448;7.028;2023-07-31T12:57:41;19.00;89.20
913;DHT22;443;51.448;7.028;2023-07-31T13:00:11;19.00;90.00
913;DHT22;443;51.448;7.028;2023-07-31T13:02:38;19.00;89.40
913;DHT22;443;51.448;7.028;2023-07-31T13:05:05;19.00;89.70
913;DHT22;443;51.448;7.028;2023-07-31T13:07:32;19.00;89.90
913;DHT22;443;51.448;7.028;2023-07-31T13:09:58;19.00;89.80
913;DHT22;443;51.448;7.028;2023-07-31T13:12:25;19.00;90.10
913;DHT22;443;51.448;7.028;2023-07-31T13:14:52;19.00;90.30
913;DHT22;443;51.448;7.028;2023-07-31T13:17:20;19.00;90.10
913;DHT22;443;51.448;7.028;2023-07-31T13:19:47;19.00;89.70
913;DHT22;443;51.448;7.028;2023-07-31T13:22:13;19.00;89.80
913;DHT22;443;51.448;7.028;2023-07-31T13:24:40;19.00;89.90
913;DHT22;443;51.448;7.028;2023-07-31T13:27:07;19.00;90.10
913;DHT22;443;51.448;7.028;2023-07-31T13:29:34;19.00;89.90
913;DHT22;443;51.448;7.028;2023-07-31T13:32:00;19.00;89.20
913;DHT22;443;51.448;7.028;2023-07-31T13:34:28;19.10;90.00
913;DHT22;443;51.448;7.028;2023-07-31T13:36:55;19.00;90.00
913;DHT22;443;51.448;7.028;2023-07-31T13:39:22;19.00;90.00
913;DHT22;443;51.448;7.028;2023-07-31T13:41:48;19.00;89.80
913;DHT22;443;51.448;7.028;2023-07-31T13:44:15;19.00;89.30
913;DHT22;443;51.448;7.028;2023-07-31T13:46:42;19.10;90.00
913;DHT22;443;51.448;7.028;2023-07-31T13:49:08;19.10;89.40
913;DHT22;443;51.448;7.028;2023-07-31T13:51:36;19.10;90.10
913;DHT22;443;51.448;7.028;2023-07-31T13:54:05;19.10;89.60
913;DHT22;443;51.448;7.028;2023-07-31T13:56:32;19.10;90.00
913;DHT22;443;51.448;7.028;2023-07-31T13:58:59;19.00;89.10
913;DHT22;443;51.448;7.028;2023-07-31T14:01:26;19.10;89.80
913;DHT22;443;51.448;7.028;2023-07-31T14:03:53;19.10;90.00
913;DHT22;443;51.448;7.028;2023-07-31T14:06:20;19.10;89.00
913;DHT22;443;51.448;7.028;2023-07-31T14:08:48;19.10;89.40
913;DHT22;443;51.448;7.028;2023-07-31T14:11:14;19.10;88.80
913;DHT22;443;51.448;7.028;2023-07-31T14:13:41;19.10;89.10
913;DHT22;443;51.448;7.028;2023-07-31T14:16:08;19.10;88.60
913;DHT22;443;51.448;7.028;2023-07-31T14:18:35;19.10;88.50
913;DHT22;443;51.448;7.028;2023-07-31T14:21:01;19.20;89.20
913;DHT22;443;51.448;7.028;2023-07-31T14:23:28;19.20;88.50
913;DHT22;443;51.448;7.028;2023-07-31T14:25:56;19.20;88.90
913;DHT22;443;51.448;7.028;2023-07-31T14:28:23;19.20;88.30
913;DHT22;443;51.448;7.028;2023-07-31T14:30:50;19.20;88.50
913;DHT22;443;51.448;7.028;2023-07-31T14:33:16;19.20;89.00
913;DHT22;443;51.448;7.028;2023-07-31T14:35:43;19.20;88.50
913;DHT22;443;51.448;7.028;2023-07-31T14:38:10;19.20;89.40
913;DHT22;443;51.448;7.028;2023-07-31T14:40:37;19.20;88.40
913;DHT22;443;51.448;7.028;2023-07-31T14:43:05;19.20;88.90
913;DHT22;443;51.448;7.028;2023-07-31T14:45:32;19.20;88.50
913;DHT22;443;51.448;7.028;2023-07-31T14:47:58;19.20;88.60
913;DHT22;443;51.448;7.028;2023-07-31T14:50:25;19.20;89.10
913;DHT22;443;51.448;7.028;2023-07-31T14:52:52;19.20;89.00
913;DHT22;443;51.448;7.028;2023-07-31T14:55:19;19.20;89.10
913;DHT22;443;51.448;7.028;2023-07-31T14:57:46;19.10;88.50
913;DHT22;443;51.448;7.028;2023-07-31T15:00:15;19.20;88.60
913;DHT22;443;51.448;7.028;2023-07-31T15:02:41;19.20;88.60
913;DHT22;443;51.448;7.028;2023-07-31T15:05:09;19.20;89.10
913;DHT22;443;51.448;7.028;2023-07-31T15:07:35;19.20;88.50
913;DHT22;443;51.448;7.028;2023-07-31T15:10:03;19.20;89.80
913;DHT22;443;51.448;7.028;2023-07-31T15:12:29;19.10;88.60
913;DHT22;443;51.448;7.028;2023-07-31T15:14:56;19.20;89.80
913;DHT22;443;51.448;7.028;2023-07-31T15:17:24;19.10;89.40
913;DHT22;443;51.448;7.028;2023-07-31T15:19:51;19.10;88.90
913;DHT22;443;51.448;7.028;2023-07-31T15:22:18;19.10;88.60
913;DHT22;443;51.448;7.028;2023-07-31T15:24:45;19.10;88.90
913;DHT22;443;51.448;7.028;2023-07-31T15:27:14;19.10;88.80
913;DHT22;443;51.448;7.028;2023-07-31T15:29:41;19.10;88.50
913;DHT22;443;51.448;7.028;2023-07-31T15:32:08;19.10;88.30
913;DHT22;443;51.448;7.028;2023-07-31T15:34:36;19.10;88.90
913;DHT22;443;51.448;7.028;2023-07-31T15:37:03;19.10;88.80
913;DHT22;443;51.448;7.028;2023-07-31T15:39:30;19.10;88.60
913;DHT22;443;51.448;7.028;2023-07-31T15:41:56;19.10;88.30
913;DHT22;443;51.448;7.028;2023-07-31T15:44:23;19.10;88.40
913;DHT22;443;51.448;7.028;2023-07-31T15:46:50;19.10;88.50
913;DHT22;443;51.448;7.028;2023-07-31T15:49:17;19.10;88.30
913;DHT22;443;51.448;7.028;2023-07-31T15:51:45;19.20;89.10
913;DHT22;443;51.448;7.028;2023-07-31T15:54:12;19.20;88.80
913;DHT22;443;51.448;7.028;2023-07-31T15:56:38;19.10;88.20
913;DHT22;443;51.448;7.028;2023-07-31T15:59:05;19.10;88.50
913;DHT22;443;51.448;7.028;2023-07-31T16:01:32;19.20;88.80
913;DHT22;443;51.448;7.028;2023-07-31T16:03:58;19.10;88.50
913;DHT22;443;51.448;7.028;2023-07-31T16:06:25;19.10;88.10
913;DHT22;443;51.448;7.028;2023-07-31T16:08:53;19.20;89.10
913;DHT22;443;51.448;7.028;2023-07-31T16:11:20;19.10;88.30
913;DHT22;443;51.448;7.028;2023-07-31T16:13:47;19.20;89.30
913;DHT22;443;51.448;7.028;2023-07-31T16:16:14;19.10;88.80
913;DHT22;443;51.448;7.028;2023-07-31T16:18:40;19.20;89.60
913;DHT22;443;51.448;7.028;2023-07-31T16:21:07;19.10;89.60
913;DHT22;443;51.448;7.028;2023-07-31T16:23:34;19.10;89.60
913;DHT22;443;51.448;7.028;2023-07-31T16:26:02;19.10;89.80
913;DHT22;443;51.448;7.028;2023-07-31T16:28:29;19.10;90.00
913;DHT22;443;51.448;7.028;2023-07-31T16:30:56;19.10;89.70
913;DHT22;443;51.448;7.028;2023-07-31T16:33:23;19.10;89.00
913;DHT22;443;51.448;7.028;2023-07-31T16:35:50;19.10;89.00
913;DHT22;443;51.448;7.028;2023-07-31T16:38:16;19.10;88.80